createdAt,value
2023-12-01T00:01:50.340Z,142.60
2023-12-01T00:06:56.594Z,133.90
2023-12-01T00:12:02.783Z,105.10
2023-12-01T00:17:09.376Z,119.50
2023-12-01T00:22:15.781Z,117.90
2023-12-01T00:27:21.822Z,122.70
2023-12-01T00:32:28.077Z,123.90
2023-12-01T00:37:34.430Z,111.40
2023-12-01T00:42:40.485Z,104.00
2023-12-01T00:47:46.796Z,96.10
2023-12-01T00:52:53.374Z,100.20
2023-12-01T00:57:59.494Z,96.40
2023-12-01T01:03:05.611Z,105.10
2023-12-01T01:08:11.695Z,115.70
2023-12-01T01:13:18.636Z,102.20
2023-12-01T01:18:25.629Z,116.70
2023-12-01T01:23:32.076Z,106.50
2023-12-01T01:28:38.269Z,114.20
2023-12-01T01:33:44.326Z,107.80
2023-12-01T01:38:51.209Z,117.80
2023-12-01T01:49:02.416Z,126.90
2023-12-01T01:54:09.293Z,138.40
2023-12-01T02:04:21.788Z,113.90
2023-12-01T02:09:29.358Z,99.40
2023-12-01T02:14:35.608Z,89.70
2023-12-01T02:19:42.289Z,96.90
2023-12-01T02:24:48.938Z,91.80
2023-12-01T02:29:55.098Z,100.30
2023-12-01T02:35:01.382Z,113.50
2023-12-01T02:40:17.488Z,124.60
2023-12-01T02:45:25.216Z,120.20
2023-12-01T02:50:32.447Z,114.90
2023-12-01T02:55:39.178Z,119.00
2023-12-01T03:00:46.202Z,116.00
2023-12-01T03:05:52.383Z,125.60
2023-12-01T03:10:58.977Z,132.40
2023-12-01T03:16:05.244Z,126.10
2023-12-01T03:21:15.164Z,117.00
2023-12-01T03:26:24.258Z,107.90
2023-12-01T03:31:30.300Z,112.20
2023-12-01T03:36:36.423Z,120.50
2023-12-01T03:41:43.508Z,108.60
2023-12-01T03:46:49.538Z,100.70
2023-12-01T03:51:56.014Z,102.60
2023-12-01T03:57:02.076Z,106.60
2023-12-01T04:02:08.463Z,95.20
2023-12-01T04:07:14.454Z,103.50
2023-12-01T04:12:20.653Z,95.50
2023-12-01T04:17:26.661Z,106.60
2023-12-01T04:22:32.610Z,99.20
2023-12-01T04:27:39.221Z,106.80
2023-12-01T04:32:47.716Z,100.80
2023-12-01T04:37:54.113Z,120.70
2023-12-01T04:43:02.722Z,108.60
2023-12-01T04:48:10.591Z,115.30
2023-12-01T04:53:17.068Z,122.00
2023-12-01T04:58:23.308Z,126.80
2023-12-01T05:03:29.369Z,126.50
2023-12-01T05:08:35.586Z,128.10
2023-12-01T05:13:42.724Z,115.70
2023-12-01T05:18:48.722Z,119.60
2023-12-01T05:23:54.889Z,115.00
2023-12-01T05:29:00.842Z,116.20
2023-12-01T05:34:07.750Z,100.90
2023-12-01T05:39:14.537Z,104.50
2023-12-01T05:44:20.813Z,103.80
2023-12-01T05:49:27.111Z,99.30
2023-12-01T05:54:33.455Z,97.20
2023-12-01T05:59:39.724Z,97.80
2023-12-01T06:04:46.160Z,93.80
2023-12-01T06:09:52.368Z,96.60
2023-12-01T06:14:58.618Z,102.80
2023-12-01T06:20:05.264Z,107.90
2023-12-01T06:25:11.750Z,119.60
2023-12-01T06:30:19.429Z,116.60
2023-12-01T06:35:25.800Z,101.30
2023-12-01T06:40:35.341Z,89.40
2023-12-01T06:45:45.534Z,102.30
2023-12-01T06:50:51.690Z,110.20
2023-12-01T06:56:01.007Z,108.90
2023-12-01T07:01:08.053Z,101.50
2023-12-01T07:06:14.585Z,124.80
2023-12-01T07:11:20.908Z,117.80
2023-12-01T07:16:27.853Z,96.20
2023-12-01T07:21:34.144Z,129.00
2023-12-01T07:26:40.186Z,114.60
2023-12-01T07:31:46.542Z,122.70
2023-12-01T07:36:53.898Z,140.60
2023-12-01T07:42:00.297Z,126.40
2023-12-01T07:47:10.102Z,125.30
2023-12-01T07:52:16.477Z,93.20
2023-12-01T07:57:23.190Z,118.60
2023-12-01T08:02:29.782Z,100.10
2023-12-01T08:07:35.992Z,101.80
2023-12-01T08:12:42.181Z,116.00
2023-12-01T08:17:49.045Z,112.40
2023-12-01T08:27:59.795Z,120.80
2023-12-01T08:33:07.350Z,119.60
2023-12-01T08:38:13.592Z,108.20
2023-12-01T08:43:19.680Z,114.60
2023-12-01T08:48:25.918Z,129.80
2023-12-01T08:53:32.173Z,115.50
2023-12-01T08:58:39.282Z,128.10
2023-12-01T09:03:45.750Z,135.10
2023-12-01T09:08:51.857Z,128.60
2023-12-01T09:13:57.861Z,148.80
2023-12-01T09:19:06.022Z,204.80
2023-12-01T09:24:13.596Z,143.30
2023-12-01T09:29:19.830Z,115.50
2023-12-01T09:34:25.909Z,113.80
2023-12-01T09:39:32.080Z,98.70
2023-12-01T09:44:38.118Z,76.80
2023-12-01T09:49:45.062Z,101.60
2023-12-01T09:55:07.315Z,74.00
2023-12-01T10:00:18.607Z,77.90
2023-12-01T10:05:27.649Z,80.20
2023-12-01T10:10:34.495Z,70.70
2023-12-01T10:15:41.374Z,65.00
2023-12-01T10:21:05.211Z,69.70
2023-12-01T10:26:14.965Z,63.00
2023-12-01T10:31:20.969Z,62.80
2023-12-01T10:36:27.383Z,52.40
2023-12-01T10:41:34.135Z,59.40
2023-12-01T10:51:44.787Z,48.00
2023-12-01T10:57:04.035Z,51.30
2023-12-01T11:02:14.995Z,48.80
2023-12-01T11:07:34.953Z,57.30
2023-12-01T11:12:49.683Z,65.80
2023-12-01T11:17:58.477Z,54.50
2023-12-01T11:23:25.061Z,47.90
2023-12-01T11:28:44.128Z,46.70
2023-12-01T11:33:52.322Z,39.40
2023-12-01T11:39:31.572Z,64.50
2023-12-01T11:44:39.869Z,49.60
2023-12-01T11:49:47.621Z,72.50
2023-12-01T11:54:53.759Z,57.30
2023-12-01T12:00:01.717Z,40.90
2023-12-01T12:05:09.326Z,53.60
2023-12-01T12:10:18.511Z,48.10
2023-12-01T12:15:24.590Z,44.70
2023-12-01T12:20:30.828Z,46.40
2023-12-01T12:25:40.360Z,60.20
2023-12-01T12:30:46.504Z,52.70
2023-12-01T12:35:52.626Z,47.20
2023-12-01T12:40:59.109Z,42.00
2023-12-01T12:46:07.649Z,47.50
2023-12-01T12:51:14.853Z,86.90
2023-12-01T12:56:22.947Z,102.10
2023-12-01T13:01:29.740Z,50.30
2023-12-01T13:06:35.607Z,128.00
2023-12-01T13:11:54.327Z,75.40
2023-12-01T13:17:00.248Z,54.90
2023-12-01T13:22:06.593Z,45.60
2023-12-01T13:27:15.476Z,40.20
2023-12-01T13:32:21.437Z,39.90
2023-12-01T13:37:27.267Z,35.60
2023-12-01T13:42:33.199Z,37.90
2023-12-01T13:47:39.331Z,45.30
2023-12-01T13:52:46.122Z,49.80
2023-12-01T13:57:52.620Z,48.70
2023-12-01T14:02:59.472Z,42.90
2023-12-01T14:08:06.660Z,48.40
2023-12-01T14:13:12.957Z,50.00
2023-12-01T14:18:18.994Z,45.40
2023-12-01T14:23:24.906Z,44.60
2023-12-01T14:28:33.208Z,65.00
2023-12-01T14:33:39.640Z,57.30
2023-12-01T14:38:45.839Z,49.20
2023-12-01T14:43:52.088Z,49.50
2023-12-01T14:49:01.194Z,55.10
2023-12-01T14:54:07.839Z,56.20
2023-12-01T14:59:13.688Z,51.80
2023-12-01T15:04:19.964Z,56.00
2023-12-01T15:09:26.217Z,55.50
2023-12-01T15:14:32.085Z,49.40
2023-12-01T15:19:38.085Z,60.80
2023-12-01T15:24:44.072Z,57.30
2023-12-01T15:29:50.394Z,64.60
2023-12-01T15:34:58.698Z,69.60
2023-12-01T15:40:05.196Z,66.80
2023-12-01T15:45:12.771Z,65.30
2023-12-01T15:50:19.011Z,75.90
2023-12-01T15:55:24.921Z,67.30
2023-12-01T16:00:31.046Z,80.00
2023-12-01T16:05:37.389Z,93.90
2023-12-01T16:10:43.253Z,100.70
2023-12-01T16:15:49.077Z,71.10
2023-12-01T16:20:55.528Z,71.30
2023-12-01T16:26:01.455Z,80.10
2023-12-01T16:31:09.276Z,63.40
2023-12-01T16:36:31.221Z,88.10
2023-12-01T16:41:39.203Z,79.70
2023-12-01T16:46:45.044Z,113.70
2023-12-01T16:51:51.040Z,105.80
2023-12-01T16:56:57.922Z,123.40
2023-12-01T17:07:09.723Z,72.00
2023-12-01T17:12:15.494Z,92.90
2023-12-01T17:17:21.345Z,100.60
2023-12-01T17:22:27.359Z,90.20
2023-12-01T17:27:33.320Z,71.30
2023-12-01T17:32:40.634Z,94.80
2023-12-01T17:37:46.752Z,133.40
2023-12-01T17:42:53.139Z,120.30
2023-12-01T17:47:59.476Z,131.60
2023-12-01T17:53:05.596Z,96.90
2023-12-01T17:58:11.731Z,107.20
2023-12-01T18:03:17.613Z,72.00
2023-12-01T18:08:23.995Z,43.10
2023-12-01T18:13:29.878Z,39.90
2023-12-01T18:18:37.969Z,36.30
2023-12-01T18:23:44.187Z,47.10
2023-12-01T18:28:49.974Z,44.60
2023-12-01T18:33:55.876Z,48.90
2023-12-01T18:39:02.424Z,38.70
2023-12-01T18:44:09.036Z,47.90
2023-12-01T18:49:14.929Z,41.30
2023-12-01T18:54:21.733Z,44.60
2023-12-01T19:04:32.267Z,42.20
2023-12-01T19:09:38.382Z,50.10
2023-12-01T19:14:44.319Z,44.40
2023-12-01T19:19:50.615Z,39.80
2023-12-01T19:24:56.672Z,45.50
2023-12-01T19:30:03.224Z,36.30
2023-12-01T19:35:12.190Z,35.10
2023-12-01T19:40:20.698Z,34.80
2023-12-01T19:45:26.736Z,35.60
2023-12-01T19:50:32.613Z,86.30
2023-12-01T19:55:38.989Z,68.90
2023-12-01T20:00:44.982Z,48.40
2023-12-01T20:05:51.071Z,37.20
2023-12-01T20:10:57.043Z,33.80
2023-12-01T20:16:02.913Z,40.50
2023-12-01T20:21:09.866Z,39.10
2023-12-01T20:26:15.758Z,52.10
2023-12-01T20:31:21.525Z,33.20
2023-12-01T20:36:27.442Z,42.20
2023-12-01T20:41:33.259Z,49.80
2023-12-01T20:46:39.091Z,47.70
2023-12-01T20:51:45.254Z,44.60
2023-12-01T20:56:51.392Z,41.90
2023-12-01T21:01:57.256Z,55.00
2023-12-01T21:07:03.988Z,43.30
2023-12-01T21:12:10.694Z,47.30
2023-12-01T21:17:16.677Z,48.10
2023-12-01T21:22:22.623Z,16.90
2023-12-01T21:27:29.960Z,55.50
2023-12-01T21:32:37.701Z,32.90
2023-12-01T21:37:44.563Z,52.40
2023-12-01T21:42:50.726Z,56.20
2023-12-01T21:47:56.633Z,54.80
2023-12-01T21:53:03.563Z,44.30
2023-12-01T22:03:14.134Z,57.80
2023-12-01T22:08:20.056Z,56.40
2023-12-01T22:13:25.934Z,53.90
2023-12-01T22:18:31.949Z,43.40
2023-12-01T22:23:40.115Z,50.40
2023-12-01T22:28:46.114Z,55.50
2023-12-01T22:33:51.988Z,63.60
2023-12-01T22:38:57.990Z,58.60
2023-12-01T22:44:03.925Z,70.10
2023-12-01T22:49:11.461Z,72.90
2023-12-01T22:54:17.446Z,73.10
2023-12-01T22:59:23.240Z,58.70
2023-12-01T23:04:29.210Z,43.60
2023-12-01T23:09:35.266Z,50.90
2023-12-01T23:14:41.328Z,83.20
2023-12-01T23:19:47.762Z,61.10
2023-12-01T23:24:54.114Z,54.70
2023-12-01T23:30:00.076Z,68.90
2023-12-01T23:35:07.126Z,42.40
2023-12-01T23:40:14.361Z,65.20
2023-12-01T23:45:20.428Z,64.50
2023-12-01T23:50:26.969Z,60.90
2023-12-01T23:55:33.111Z,60.40
